createdAt,value
2016-05-13T00:00:03.853Z,24.17
2016-05-13T00:01:03.855Z,24.24
2016-05-13T00:02:03.842Z,24.19
2016-05-13T00:03:03.500Z,24.17
2016-05-13T00:04:03.863Z,24.12
2016-05-13T00:05:03.491Z,24.12
2016-05-13T00:06:03.884Z,24.11
2016-05-13T00:07:03.902Z,24.14
2016-05-13T00:08:03.686Z,24.12
2016-05-13T00:09:04.033Z,24.08
2016-05-13T00:10:03.660Z,24.14
2016-05-13T00:11:03.507Z,24.14
2016-05-13T00:12:03.854Z,24.14
2016-05-13T00:13:03.903Z,24.12
2016-05-13T00:14:03.859Z,24.08
2016-05-13T00:15:04.065Z,24.04
2016-05-13T00:16:03.645Z,24.08
2016-05-13T00:17:03.679Z,24.09
2016-05-13T00:18:03.728Z,24.11
2016-05-13T00:19:03.715Z,24.09
2016-05-13T00:20:03.469Z,24.03
2016-05-13T00:21:03.674Z,24
2016-05-13T00:22:03.662Z,24.07
2016-05-13T00:23:03.742Z,23.93
2016-05-13T00:24:03.526Z,23.89
2016-05-13T00:25:03.467Z,24.02
2016-05-13T00:26:04.078Z,24.02
2016-05-13T00:27:03.675Z,23.99
2016-05-13T00:28:03.678Z,23.94
2016-05-13T00:29:03.461Z,23.99
2016-05-13T00:30:03.698Z,23.96
2016-05-13T00:31:03.873Z,23.96
2016-05-13T00:32:03.891Z,23.84
2016-05-13T00:33:03.770Z,23.84
2016-05-13T00:34:03.881Z,23.9
2016-05-13T00:35:03.884Z,23.87
2016-05-13T00:36:03.886Z,23.85
2016-05-13T00:37:03.671Z,23.9
2016-05-13T00:38:03.923Z,23.89
2016-05-13T00:39:03.879Z,23.82
2016-05-13T00:40:03.475Z,23.82
2016-05-13T00:41:04.072Z,23.9
2016-05-13T00:42:04.075Z,23.85
2016-05-13T00:43:03.468Z,23.82
2016-05-13T00:44:03.690Z,23.85
2016-05-13T00:45:04.082Z,23.84
2016-05-13T00:46:03.882Z,23.79
2016-05-13T00:47:04.088Z,23.79
2016-05-13T00:48:04.232Z,23.84
2016-05-13T00:49:03.890Z,23.75
2016-05-13T00:50:03.721Z,23.75
2016-05-13T00:51:04.067Z,23.74
2016-05-13T00:52:03.711Z,23.75
2016-05-13T00:53:03.870Z,23.74
2016-05-13T00:54:03.528Z,23.72
2016-05-13T00:55:03.876Z,23.7
2016-05-13T00:56:03.518Z,23.67
2016-05-13T00:57:03.678Z,23.66
2016-05-13T00:58:03.884Z,23.62
2016-05-13T00:59:03.870Z,23.63
2016-05-13T01:00:03.733Z,23.62
2016-05-13T01:01:03.875Z,23.59
2016-05-13T01:02:03.889Z,23.6
2016-05-13T01:03:03.795Z,23.62
2016-05-13T01:04:04.201Z,23.6
2016-05-13T01:05:03.824Z,23.52
2016-05-13T01:06:04.074Z,23.53
2016-05-13T01:07:04.300Z,23.63
2016-05-13T01:08:04.334Z,23.47
2016-05-13T01:09:04.135Z,23.53
2016-05-13T01:10:04.356Z,23.57
2016-05-13T01:11:04.374Z,23.56
2016-05-13T01:12:04.187Z,23.48
2016-05-13T01:13:04.179Z,23.57
2016-05-13T01:14:04.187Z,23.57
2016-05-13T01:15:03.993Z,23.52
2016-05-13T01:16:03.845Z,23.55
2016-05-13T01:17:04.211Z,23.5
2016-05-13T01:18:04.402Z,23.57
2016-05-13T01:19:04.251Z,23.53
2016-05-13T01:20:04.005Z,23.5
2016-05-13T01:21:04.010Z,23.45
2016-05-13T01:22:03.795Z,23.52
2016-05-13T01:23:04.018Z,23.42
2016-05-13T01:24:13.615Z,23.44
2016-05-13T01:25:04.213Z,23.41
2016-05-13T01:26:04.217Z,23.52
2016-05-13T01:27:04.016Z,23.41
2016-05-13T01:28:04.223Z,23.44
2016-05-13T01:29:04.413Z,23.38
2016-05-13T01:30:04.009Z,23.4
2016-05-13T01:31:04.419Z,23.4
2016-05-13T01:32:03.860Z,23.41
2016-05-13T01:33:03.862Z,23.35
2016-05-13T01:34:04.412Z,23.41
2016-05-13T01:35:04.210Z,23.34
2016-05-13T01:36:04.213Z,23.34
2016-05-13T01:37:04.217Z,23.42
2016-05-13T01:38:04.407Z,23.38
2016-05-13T01:39:04.019Z,23.34
2016-05-13T01:40:04.209Z,23.34
2016-05-13T01:41:03.821Z,23.25
2016-05-13T01:42:04.059Z,23.24
2016-05-13T01:43:04.217Z,23.25
2016-05-13T01:44:04.001Z,23.29
2016-05-13T01:45:04.426Z,23.26
2016-05-13T01:46:04.006Z,23.34
2016-05-13T01:47:04.056Z,23.34
2016-05-13T01:48:04.231Z,23.29
2016-05-13T01:49:04.218Z,23.26
2016-05-13T01:50:04.221Z,23.18
2016-05-13T01:51:04.004Z,23.22
2016-05-13T01:52:04.211Z,23.21
2016-05-13T01:53:04.009Z,23.16
2016-05-13T01:54:04.403Z,23.19
2016-05-13T01:55:04.202Z,23.18
2016-05-13T01:56:04.002Z,23.12
2016-05-13T01:57:03.802Z,23.14
2016-05-13T01:58:04.211Z,23.15
2016-05-13T01:59:04.417Z,23.18
2016-05-13T02:00:04.216Z,23.12
2016-05-13T02:01:04.016Z,23.19
2016-05-13T02:02:04.205Z,23.12
2016-05-13T02:03:03.849Z,23.07
2016-05-13T02:04:04.211Z,23.09
2016-05-13T02:05:04.011Z,23.07
2016-05-13T02:06:04.419Z,23.14
2016-05-13T02:07:04.063Z,22.99
2016-05-13T02:08:04.206Z,23.15
2016-05-13T02:09:04.413Z,23.12
2016-05-13T02:10:04.009Z,23.06
2016-05-13T02:11:04.402Z,23.01
2016-05-13T02:12:04.249Z,23.06
2016-05-13T02:13:04.048Z,23.01
2016-05-13T02:14:04.206Z,22.92
2016-05-13T02:15:04.256Z,22.91
2016-05-13T02:16:04.010Z,22.91
2016-05-13T02:17:04.199Z,22.97
2016-05-13T02:18:04.390Z,22.94
2016-05-13T02:19:04.204Z,23
2016-05-13T02:20:04.050Z,22.88
2016-05-13T02:21:03.788Z,22.92
2016-05-13T02:22:04.416Z,22.91
2016-05-13T02:23:04.200Z,22.99
2016-05-13T02:24:04.406Z,23
2016-05-13T02:25:03.986Z,22.94
2016-05-13T02:26:04.192Z,22.86
2016-05-13T02:27:04.195Z,22.89
2016-05-13T02:28:04.197Z,22.85
2016-05-13T02:29:03.997Z,22.88
2016-05-13T02:30:03.984Z,22.85
2016-05-13T02:31:04.206Z,22.94
2016-05-13T02:32:03.989Z,22.89
2016-05-13T02:33:03.899Z,22.91
2016-05-13T02:34:03.979Z,22.86
2016-05-13T02:35:03.997Z,22.82
2016-05-13T02:36:04.406Z,22.85
2016-05-13T02:37:04.190Z,22.85
2016-05-13T02:38:04.256Z,22.85
2016-05-13T02:39:04.196Z,22.82
2016-05-13T02:40:04.199Z,22.82
2016-05-13T02:41:03.826Z,22.84
2016-05-13T02:42:04.188Z,22.76
2016-05-13T02:43:03.988Z,22.82
2016-05-13T02:44:04.396Z,22.75
2016-05-13T02:45:04.181Z,22.7
2016-05-13T02:46:04.199Z,22.73
2016-05-13T02:47:04.186Z,22.78
2016-05-13T02:48:03.845Z,22.71
2016-05-13T02:49:03.785Z,22.64
2016-05-13T02:50:03.773Z,22.64
2016-05-13T02:51:04.182Z,22.6
2016-05-13T02:52:04.403Z,22.66
2016-05-13T02:53:04.186Z,22.66
2016-05-13T02:54:04.220Z,22.66
2016-05-13T02:55:04.380Z,22.67
2016-05-13T02:56:04.382Z,22.63
2016-05-13T02:57:04.386Z,22.61
2016-05-13T02:58:03.778Z,22.69
2016-05-13T02:59:04.187Z,22.7
2016-05-13T03:00:03.971Z,22.66
2016-05-13T03:01:04.177Z,22.64
2016-05-13T03:02:04.164Z,22.57
2016-05-13T03:03:03.666Z,22.59
2016-05-13T03:04:04.169Z,22.55
2016-05-13T03:05:03.766Z,22.57
2016-05-13T03:06:04.175Z,22.49
2016-05-13T03:07:04.177Z,22.54
2016-05-13T03:08:04.165Z,22.55
2016-05-13T03:09:04.168Z,22.52
2016-05-13T03:10:03.999Z,22.52
2016-05-13T03:11:04.219Z,22.55
2016-05-13T03:12:04.176Z,22.55
2016-05-13T03:13:04.365Z,22.46
2016-05-13T03:14:04.009Z,22.55
2016-05-13T03:15:04.371Z,22.51
2016-05-13T03:16:04.014Z,22.44
2016-05-13T03:17:04.189Z,22.52
2016-05-13T03:18:03.957Z,22.46
2016-05-13T03:19:04.162Z,22.44
2016-05-13T03:20:03.962Z,22.44
2016-05-13T03:21:04.355Z,22.36
2016-05-13T03:22:04.170Z,22.38
2016-05-13T03:23:04.159Z,22.44
2016-05-13T03:24:04.364Z,22.38
2016-05-13T03:25:03.961Z,22.41
2016-05-13T03:26:04.369Z,22.39
2016-05-13T03:27:03.950Z,22.29
2016-05-13T03:28:04.015Z,22.45
2016-05-13T03:29:04.158Z,22.36
2016-05-13T03:30:04.161Z,22.24
2016-05-13T03:31:03.961Z,22.29
2016-05-13T03:32:04.150Z,22.26
2016-05-13T03:33:03.997Z,22.24
2016-05-13T03:34:04.344Z,22.23
2016-05-13T03:35:03.941Z,22.29
2016-05-13T03:36:04.147Z,22.29
2016-05-13T03:37:04.196Z,22.24
2016-05-13T03:38:03.933Z,22.26
2016-05-13T03:39:03.998Z,22.34
2016-05-13T03:40:04.141Z,22.26
2016-05-13T03:41:03.924Z,22.15
2016-05-13T03:42:04.132Z,22.27
2016-05-13T03:43:03.930Z,22.24
2016-05-13T03:44:04.121Z,22.24
2016-05-13T03:45:04.343Z,22.2
2016-05-13T03:46:03.735Z,22.18
2016-05-13T03:47:04.332Z,22.18
2016-05-13T03:48:04.194Z,22.15
2016-05-13T03:49:03.931Z,22.14
2016-05-13T03:50:04.137Z,22.11
2016-05-13T03:51:04.327Z,22.07
2016-05-13T03:52:03.939Z,22.14
2016-05-13T03:53:04.332Z,22.09
2016-05-13T03:54:03.570Z,22.08
2016-05-13T03:55:04.120Z,22.05
2016-05-13T03:56:03.965Z,22.02
2016-05-13T03:57:04.140Z,22.05
2016-05-13T03:58:04.111Z,22
2016-05-13T03:59:03.552Z,22.05
2016-05-13T04:00:04.117Z,21.99
2016-05-13T04:01:04.103Z,22.04
2016-05-13T04:02:04.326Z,21.9
2016-05-13T04:03:03.750Z,22.02
2016-05-13T04:04:03.753Z,22
2016-05-13T04:05:04.114Z,21.89
2016-05-13T04:06:04.321Z,21.96
2016-05-13T04:07:03.901Z,21.93
2016-05-13T04:08:04.108Z,21.93
2016-05-13T04:09:04.094Z,21.9
2016-05-13T04:10:03.691Z,21.93
2016-05-13T04:11:03.896Z,21.92
2016-05-13T04:12:03.899Z,21.93
2016-05-13T04:13:04.308Z,21.86
2016-05-13T04:14:04.296Z,21.92
2016-05-13T04:15:03.532Z,21.89
2016-05-13T04:16:04.098Z,21.86
2016-05-13T04:17:04.303Z,21.86
2016-05-13T04:18:04.290Z,21.78
2016-05-13T04:19:04.309Z,21.85
2016-05-13T04:20:04.093Z,21.86
2016-05-13T04:21:03.752Z,21.77
2016-05-13T04:22:03.926Z,21.82
2016-05-13T04:23:04.288Z,21.78
2016-05-13T04:24:04.290Z,21.77
2016-05-13T04:25:04.090Z,21.85
2016-05-13T04:26:04.092Z,21.8
2016-05-13T04:27:03.924Z,21.77
2016-05-13T04:28:03.520Z,21.78
2016-05-13T04:29:04.289Z,21.76
2016-05-13T04:30:03.917Z,21.73
2016-05-13T04:31:03.669Z,21.73
2016-05-13T04:32:04.281Z,21.73
2016-05-13T04:33:03.564Z,21.78
2016-05-13T04:34:03.911Z,21.8
2016-05-13T04:35:03.664Z,21.74
2016-05-13T04:36:04.292Z,21.74
2016-05-13T04:37:03.700Z,21.76
2016-05-13T04:38:04.063Z,21.76
2016-05-13T04:39:03.910Z,21.7
2016-05-13T04:40:03.709Z,21.77
2016-05-13T04:41:03.665Z,21.76
2016-05-13T04:42:04.261Z,21.71
2016-05-13T04:43:04.060Z,21.76
2016-05-13T04:44:04.110Z,21.7
2016-05-13T04:45:03.659Z,21.71
2016-05-13T04:46:03.897Z,21.66
2016-05-13T04:47:03.900Z,21.77
2016-05-13T04:48:03.902Z,21.74
2016-05-13T04:49:03.842Z,21.71
2016-05-13T04:50:03.689Z,21.7
2016-05-13T04:51:04.066Z,21.64
2016-05-13T04:52:03.834Z,21.61
2016-05-13T04:53:04.073Z,21.62
2016-05-13T04:54:03.903Z,21.64
2016-05-13T04:55:04.045Z,21.66
2016-05-13T04:56:03.845Z,21.67
2016-05-13T04:57:03.833Z,21.64
2016-05-13T04:58:04.086Z,21.62
2016-05-13T04:59:04.026Z,21.61
2016-05-13T05:00:04.231Z,21.58
2016-05-13T05:01:04.031Z,21.64
2016-05-13T05:02:03.924Z,21.67
2016-05-13T05:03:04.020Z,21.62
2016-05-13T05:04:04.242Z,21.58
2016-05-13T05:05:03.511Z,21.59
2016-05-13T05:06:03.826Z,21.52
2016-05-13T05:07:03.672Z,21.55
2016-05-13T05:08:03.816Z,21.52
2016-05-13T05:09:04.021Z,21.58
2016-05-13T05:10:03.711Z,21.52
2016-05-13T05:11:04.026Z,21.56
2016-05-13T05:12:04.061Z,21.49
2016-05-13T05:13:04.219Z,21.48
2016-05-13T05:14:03.800Z,21.51
2016-05-13T05:15:03.819Z,21.45
2016-05-13T05:16:04.009Z,21.45
2016-05-13T05:17:04.215Z,21.46
2016-05-13T05:18:03.795Z,21.49
2016-05-13T05:19:03.845Z,21.45
2016-05-13T05:20:04.207Z,21.43
2016-05-13T05:21:04.007Z,21.41
2016-05-13T05:22:03.837Z,21.46
2016-05-13T05:23:03.996Z,21.48
2016-05-13T05:24:03.592Z,21.43
2016-05-13T05:25:03.799Z,21.43
2016-05-13T05:26:04.004Z,21.43
2016-05-13T05:27:03.992Z,21.41
2016-05-13T05:28:03.994Z,21.34
2016-05-13T05:29:03.981Z,21.34
2016-05-13T05:30:04.186Z,21.4
2016-05-13T05:31:03.783Z,21.37
2016-05-13T05:32:03.818Z,21.41
2016-05-13T05:33:04.180Z,21.33
2016-05-13T05:34:03.979Z,21.37
2016-05-13T05:35:03.622Z,21.31
2016-05-13T05:36:04.172Z,21.34
2016-05-13T05:37:03.769Z,21.4
2016-05-13T05:38:03.974Z,21.33
2016-05-13T05:39:03.774Z,21.43
2016-05-13T05:40:03.402Z,21.33
2016-05-13T05:41:03.764Z,21.33
2016-05-13T05:42:03.766Z,21.34
2016-05-13T05:43:03.972Z,21.33
2016-05-13T05:44:03.990Z,21.34
2016-05-13T05:45:03.962Z,21.34
2016-05-13T05:46:04.151Z,21.33
2016-05-13T05:47:04.170Z,21.3
2016-05-13T05:48:04.330Z,21.34
2016-05-13T05:49:03.941Z,21.34
2016-05-13T05:50:03.585Z,21.31
2016-05-13T05:51:03.603Z,21.3
2016-05-13T05:52:03.793Z,21.33
2016-05-13T05:53:03.999Z,21.3
2016-05-13T05:54:03.954Z,21.34
2016-05-13T05:55:03.739Z,21.36
2016-05-13T05:56:03.741Z,21.34
2016-05-13T05:57:04.135Z,21.34
2016-05-13T05:58:03.981Z,21.31
2016-05-13T05:59:04.140Z,21.31
2016-05-13T06:00:03.784Z,21.31
2016-05-13T06:01:03.926Z,21.34
2016-05-13T06:02:03.742Z,21.27
2016-05-13T06:03:03.806Z,21.21
2016-05-13T06:04:03.919Z,21.33
2016-05-13T06:05:03.922Z,21.25
2016-05-13T06:06:04.128Z,21.25
2016-05-13T06:07:03.552Z,21.31
2016-05-13T06:08:03.586Z,21.22
2016-05-13T06:09:03.902Z,21.27
2016-05-13T06:10:03.920Z,21.21
2016-05-13T06:11:03.547Z,21.15
2016-05-13T06:12:04.127Z,21.19
2016-05-13T06:13:03.552Z,21.28
2016-05-13T06:14:03.743Z,21.23
2016-05-13T06:15:03.589Z,21.27
2016-05-13T06:16:03.748Z,21.27
2016-05-13T06:17:03.907Z,21.25
2016-05-13T06:18:03.801Z,21.19
2016-05-13T06:19:03.897Z,21.19
2016-05-13T06:20:03.900Z,21.19
2016-05-13T06:21:03.887Z,21.25
2016-05-13T06:22:03.530Z,21.21
2016-05-13T06:23:04.096Z,21.15
2016-05-13T06:24:04.098Z,21.25
2016-05-13T06:25:03.898Z,21.12
2016-05-13T06:26:03.884Z,21.13
2016-05-13T06:27:03.887Z,21.19
2016-05-13T06:28:04.093Z,21.19
2016-05-13T06:29:03.721Z,21.12
2016-05-13T06:30:03.879Z,21.25
2016-05-13T06:31:03.882Z,21.16
2016-05-13T06:32:03.884Z,21.16
2016-05-13T06:33:03.545Z,21.18
2016-05-13T06:34:03.875Z,21.3
2016-05-13T06:35:03.721Z,21.13
2016-05-13T06:36:03.927Z,21.22
2016-05-13T06:37:03.867Z,21.27
2016-05-13T06:38:03.650Z,21.27
2016-05-13T06:39:03.654Z,21.25
2016-05-13T06:40:03.938Z,21.27
2016-05-13T06:41:03.658Z,21.31
2016-05-13T06:42:03.521Z,21.27
2016-05-13T06:43:03.853Z,21.22
2016-05-13T06:44:03.651Z,21.28
2016-05-13T06:45:03.857Z,21.25
2016-05-13T06:46:03.657Z,21.33
2016-05-13T06:47:03.847Z,21.36
2016-05-13T06:48:04.303Z,21.31
2016-05-13T06:49:03.696Z,21.27
2016-05-13T06:50:03.855Z,21.33
2016-05-13T06:51:03.326Z,21.3
2016-05-13T06:52:03.860Z,21.34
2016-05-13T06:53:03.629Z,21.33
2016-05-13T06:54:03.881Z,21.34
2016-05-13T06:55:03.650Z,21.36
2016-05-13T06:56:03.418Z,21.37
2016-05-13T06:57:03.468Z,21.38
2016-05-13T06:58:03.830Z,21.36
2016-05-13T06:59:03.848Z,21.41
2016-05-13T07:00:03.819Z,21.4
2016-05-13T07:01:03.838Z,21.45
2016-05-13T07:02:03.826Z,21.43
2016-05-13T07:03:03.828Z,21.48
2016-05-13T07:04:03.612Z,21.48
2016-05-13T07:05:03.817Z,21.49
2016-05-13T07:06:04.023Z,21.52
2016-05-13T07:07:04.011Z,21.61
2016-05-13T07:08:03.810Z,21.59
2016-05-13T07:09:03.813Z,21.53
2016-05-13T07:10:03.627Z,21.59
2016-05-13T07:11:04.022Z,21.62
2016-05-13T07:12:03.852Z,21.61
2016-05-13T07:13:03.635Z,21.61
2016-05-13T07:14:03.998Z,21.68
2016-05-13T07:15:03.407Z,21.68
2016-05-13T07:16:03.597Z,21.7
2016-05-13T07:17:03.835Z,21.71
2016-05-13T07:18:03.649Z,21.7
2016-05-13T07:19:03.792Z,21.66
2016-05-13T07:20:03.593Z,21.67
2016-05-13T07:21:03.579Z,21.71
2016-05-13T07:22:03.582Z,21.74
2016-05-13T07:23:03.382Z,21.74
2016-05-13T07:24:03.588Z,21.7
2016-05-13T07:25:03.824Z,21.68
2016-05-13T07:26:03.576Z,21.73
2016-05-13T07:27:03.783Z,21.7
2016-05-13T07:28:03.567Z,21.78
2016-05-13T07:29:03.617Z,21.82
2016-05-13T07:30:03.776Z,21.85
2016-05-13T07:31:03.965Z,21.8
2016-05-13T07:32:03.984Z,21.76
2016-05-13T07:33:03.393Z,21.85
2016-05-13T07:34:03.973Z,21.85
2016-05-13T07:35:03.961Z,21.86
2016-05-13T07:36:03.556Z,21.89
2016-05-13T07:37:03.794Z,21.86
2016-05-13T07:38:03.766Z,21.92
2016-05-13T07:39:03.956Z,21.93
2016-05-13T07:40:03.552Z,21.85
2016-05-13T07:41:03.758Z,21.89
2016-05-13T07:42:03.589Z,21.9
2016-05-13T07:43:03.748Z,21.9
2016-05-13T07:44:03.548Z,21.93
2016-05-13T07:45:03.738Z,21.85
2016-05-13T07:46:03.943Z,21.89
2016-05-13T07:47:03.383Z,21.9
2016-05-13T07:48:03.183Z,21.99
2016-05-13T07:49:03.592Z,21.97
2016-05-13T07:50:03.736Z,21.93
2016-05-13T07:51:03.941Z,21.96
2016-05-13T07:52:03.772Z,21.97
2016-05-13T07:53:03.916Z,21.96
2016-05-13T07:54:03.512Z,22.02
2016-05-13T07:55:03.733Z,21.97
2016-05-13T07:56:03.735Z,22.02
2016-05-13T07:57:03.551Z,21.96
2016-05-13T07:58:03.538Z,22.02
2016-05-13T07:59:03.713Z,22.04
2016-05-13T08:00:03.512Z,22.07
2016-05-13T08:01:03.499Z,22.07
2016-05-13T08:02:03.502Z,22
2016-05-13T08:03:04.301Z,22.07
2016-05-13T08:04:03.507Z,22.11
2016-05-13T08:05:03.744Z,22.07
2016-05-13T08:06:03.717Z,22.04
2016-05-13T08:07:03.734Z,22.12
2016-05-13T08:08:03.284Z,22.05
2016-05-13T08:09:03.928Z,22.09
2016-05-13T08:10:03.509Z,22.12
2016-05-13T08:11:03.698Z,22.12
2016-05-13T08:12:03.544Z,22.12
2016-05-13T08:13:03.485Z,22.05
2016-05-13T08:14:03.331Z,22.12
2016-05-13T08:15:03.537Z,22.14
2016-05-13T08:16:03.275Z,22.12
2016-05-13T08:17:03.480Z,22.07
2016-05-13T08:18:03.670Z,22.15
2016-05-13T08:19:03.486Z,22.08
2016-05-13T08:20:03.879Z,22.11
2016-05-13T08:21:03.288Z,22.16
2016-05-13T08:22:03.321Z,22.12
2016-05-13T08:23:03.294Z,22.2
2016-05-13T08:24:03.671Z,22.23
2016-05-13T08:25:03.470Z,22.23
2016-05-13T08:26:03.677Z,22.2
2016-05-13T08:27:03.679Z,22.22
2016-05-13T08:28:03.666Z,22.16
2016-05-13T08:29:03.871Z,22.22
2016-05-13T08:30:03.656Z,22.14
2016-05-13T08:31:04.080Z,22.2
2016-05-13T08:32:03.457Z,22.24
2016-05-13T08:33:04.007Z,22.26
2016-05-13T08:34:03.307Z,22.26
2016-05-13T08:35:03.450Z,22.2
2016-05-13T08:36:03.859Z,22.23
2016-05-13T08:37:03.659Z,22.22
2016-05-13T08:38:03.849Z,22.27
2016-05-13T08:39:03.649Z,22.27
2016-05-13T08:40:03.651Z,22.31
2016-05-13T08:41:03.639Z,22.2
2016-05-13T08:42:03.656Z,22.26
2016-05-13T08:43:03.644Z,22.3
2016-05-13T08:44:03.444Z,22.24
2016-05-13T08:45:03.649Z,22.29
2016-05-13T08:46:03.839Z,22.29
2016-05-13T08:47:03.842Z,22.2
2016-05-13T08:48:03.845Z,22.3
2016-05-13T08:49:03.691Z,22.27
2016-05-13T08:50:03.631Z,22.24
2016-05-13T08:51:03.430Z,22.27
2016-05-13T08:52:03.433Z,22.29
2016-05-13T08:53:03.624Z,22.33
2016-05-13T08:54:03.471Z,22.26
2016-05-13T08:55:03.629Z,22.23
2016-05-13T08:56:03.819Z,22.36
2016-05-13T08:57:03.822Z,22.29
2016-05-13T08:58:03.840Z,22.33
2016-05-13T08:59:03.827Z,22.45
2016-05-13T09:00:03.627Z,22.44
2016-05-13T09:01:03.818Z,22.39
2016-05-13T09:02:03.617Z,22.38
2016-05-13T09:03:03.823Z,22.44
2016-05-13T09:04:03.622Z,22.38
2016-05-13T09:05:03.406Z,22.38
2016-05-13T09:06:03.815Z,22.38
2016-05-13T09:07:03.598Z,22.39
2016-05-13T09:08:03.383Z,22.45
2016-05-13T09:09:03.620Z,22.46
2016-05-13T09:10:03.607Z,22.41
2016-05-13T09:11:03.609Z,22.38
2016-05-13T09:12:03.800Z,22.46
2016-05-13T09:13:03.615Z,22.45
2016-05-13T09:14:03.806Z,22.44
2016-05-13T09:15:03.433Z,22.52
2016-05-13T09:16:03.795Z,22.49
2016-05-13T09:17:03.172Z,22.55
2016-05-13T09:18:03.956Z,22.54
2016-05-13T09:19:03.631Z,22.51
2016-05-13T09:20:03.791Z,22.46
2016-05-13T09:21:03.371Z,22.59
2016-05-13T09:22:03.592Z,22.55
2016-05-13T09:23:03.439Z,22.54
2016-05-13T09:24:03.597Z,22.52
2016-05-13T09:25:03.585Z,22.51
2016-05-13T09:26:03.228Z,22.55
2016-05-13T09:27:03.419Z,22.49
2016-05-13T09:28:03.218Z,22.55
2016-05-13T09:29:03.627Z,22.55
2016-05-13T09:30:03.770Z,22.49
2016-05-13T09:31:03.366Z,22.55
2016-05-13T09:32:03.151Z,22.52
2016-05-13T09:33:03.966Z,22.55
2016-05-13T09:34:03.562Z,22.54
2016-05-13T09:35:03.362Z,22.57
2016-05-13T09:36:03.412Z,22.57
2016-05-13T09:37:03.148Z,22.6
2016-05-13T09:38:04.057Z,22.64
2016-05-13T09:39:03.559Z,22.63
2016-05-13T09:40:03.470Z,22.6
2016-05-13T09:41:03.362Z,22.64
2016-05-13T09:42:03.756Z,22.52
2016-05-13T09:43:03.523Z,22.66
2016-05-13T09:44:04.198Z,22.63
2016-05-13T09:45:03.764Z,22.67
2016-05-13T09:46:03.360Z,22.73
2016-05-13T09:47:03.441Z,22.63
2016-05-13T09:48:03.553Z,22.63
2016-05-13T09:49:04.618Z,22.64
2016-05-13T09:50:03.699Z,22.73
2016-05-13T09:51:03.749Z,22.63
2016-05-13T09:52:03.344Z,22.73
2016-05-13T09:53:03.019Z,22.66
2016-05-13T09:54:03.585Z,22.64
2016-05-13T09:55:03.743Z,22.66
2016-05-13T09:56:03.746Z,22.6
2016-05-13T09:57:03.546Z,22.78
2016-05-13T09:58:03.376Z,22.7
2016-05-13T09:59:03.552Z,22.71
2016-05-13T10:00:03.179Z,22.76
2016-05-13T10:01:03.744Z,22.78
2016-05-13T10:02:03.528Z,22.81
2016-05-13T10:03:03.515Z,22.82
2016-05-13T10:04:03.737Z,22.86
2016-05-13T10:05:03.317Z,22.84
2016-05-13T10:06:03.320Z,22.88
2016-05-13T10:07:03.510Z,22.82
2016-05-13T10:08:03.531Z,22.82
2016-05-13T10:09:03.374Z,22.86
2016-05-13T10:10:03.825Z,22.88
2016-05-13T10:11:03.856Z,22.86
2016-05-13T10:12:03.713Z,22.78
2016-05-13T10:13:03.372Z,22.88
2016-05-13T10:14:03.547Z,22.85
2016-05-13T10:15:03.752Z,22.84
2016-05-13T10:16:03.628Z,22.94
2016-05-13T10:17:03.788Z,22.92
2016-05-13T10:18:04.004Z,22.96
2016-05-13T10:19:03.809Z,22.89
2016-05-13T10:20:03.614Z,22.99
2016-05-13T10:21:03.809Z,22.96
2016-05-13T10:22:03.817Z,22.94
2016-05-13T10:23:04.028Z,22.92
2016-05-13T10:24:04.032Z,22.94
2016-05-13T10:25:03.615Z,22.97
2016-05-13T10:26:03.635Z,23.04
2016-05-13T10:27:03.828Z,23.03
2016-05-13T10:28:04.034Z,23.06
2016-05-13T10:29:03.819Z,23.07
2016-05-13T10:30:03.619Z,23.04
2016-05-13T10:31:03.825Z,23.07
2016-05-13T10:32:03.673Z,23.09
2016-05-13T10:33:03.833Z,23.09
2016-05-13T10:34:03.476Z,23.1
2016-05-13T10:35:03.666Z,23.15
2016-05-13T10:36:03.655Z,23.1
2016-05-13T10:37:03.814Z,23.19
2016-05-13T10:38:03.816Z,23.16
2016-05-13T10:39:04.038Z,23.22
2016-05-13T10:40:03.619Z,23.19
2016-05-13T10:41:03.809Z,23.14
2016-05-13T10:42:03.452Z,23.18
2016-05-13T10:43:03.658Z,23.19
2016-05-13T10:44:07.114Z,23.22
2016-05-13T10:45:03.601Z,23.19
2016-05-13T10:46:03.588Z,23.21
2016-05-13T10:47:03.809Z,23.35
2016-05-13T10:48:03.765Z,23.24
2016-05-13T10:49:03.643Z,23.22
2016-05-13T10:50:03.396Z,23.24
2016-05-13T10:51:04.008Z,23.19
2016-05-13T10:52:04.011Z,23.25
2016-05-13T10:53:03.607Z,23.32
2016-05-13T10:54:04.000Z,23.32
2016-05-13T10:55:03.596Z,23.29
2016-05-13T10:56:03.302Z,23.34
2016-05-13T10:57:04.008Z,23.34
2016-05-13T10:58:03.996Z,23.25
2016-05-13T10:59:03.639Z,23.42
2016-05-13T11:00:04.000Z,23.41
2016-05-13T11:01:03.831Z,23.38
2016-05-13T11:02:03.397Z,23.4
2016-05-13T11:03:03.712Z,23.42
2016-05-13T11:04:03.667Z,23.37
2016-05-13T11:05:03.389Z,23.4
2016-05-13T11:06:03.798Z,23.4
2016-05-13T11:07:03.785Z,23.4
2016-05-13T11:08:03.772Z,23.38
2016-05-13T11:09:03.212Z,23.47
2016-05-13T11:10:03.794Z,23.52
2016-05-13T11:11:03.983Z,23.5
2016-05-13T11:12:03.424Z,23.47
2016-05-13T11:13:03.583Z,23.52
2016-05-13T11:14:03.616Z,23.59
2016-05-13T11:15:03.572Z,23.48
2016-05-13T11:16:03.777Z,23.6
2016-05-13T11:17:03.780Z,23.5
2016-05-13T11:18:04.377Z,23.52
2016-05-13T11:19:03.771Z,23.59
2016-05-13T11:20:03.773Z,23.5
2016-05-13T11:21:03.604Z,23.55
2016-05-13T11:22:03.607Z,23.5
2016-05-13T11:23:03.625Z,23.52
2016-05-13T11:24:03.502Z,23.53
2016-05-13T11:25:03.974Z,23.52
2016-05-13T11:26:03.352Z,23.59
2016-05-13T11:27:05.026Z,23.53
2016-05-13T11:28:03.982Z,23.52
2016-05-13T11:29:03.766Z,23.63
2016-05-13T11:30:03.362Z,23.62
2016-05-13T11:31:03.553Z,23.64
2016-05-13T11:32:03.806Z,23.63
2016-05-13T11:33:03.855Z,23.59
2016-05-13T11:34:04.623Z,23.6
2016-05-13T11:35:03.204Z,23.66
2016-05-13T11:36:03.753Z,23.64
2016-05-13T11:37:03.959Z,23.66
2016-05-13T11:38:03.540Z,23.67
2016-05-13T11:39:03.590Z,23.7
2016-05-13T11:40:03.545Z,23.71
2016-05-13T11:41:03.955Z,23.71
2016-05-13T11:42:03.957Z,23.75
2016-05-13T11:43:03.757Z,23.71
2016-05-13T11:44:03.541Z,23.71
2016-05-13T11:45:03.590Z,23.72
2016-05-13T11:46:03.952Z,23.74
2016-05-13T11:47:03.752Z,23.75
2016-05-13T11:48:04.536Z,23.78
2016-05-13T11:49:03.758Z,23.85
2016-05-13T11:50:03.745Z,23.75
2016-05-13T11:51:03.747Z,23.78
2016-05-13T11:52:03.546Z,23.79
2016-05-13T11:53:03.424Z,23.78
2016-05-13T11:54:03.537Z,23.82
2016-05-13T11:55:03.524Z,23.81
2016-05-13T11:56:03.745Z,23.81
2016-05-13T11:57:03.732Z,23.81
2016-05-13T11:58:03.938Z,23.85
2016-05-13T11:59:03.940Z,23.79
2016-05-13T12:00:03.334Z,23.85
2016-05-13T12:01:03.961Z,23.82
2016-05-13T12:02:03.730Z,23.94
2016-05-13T12:03:03.889Z,23.85
2016-05-13T12:04:03.392Z,23.82
2016-05-13T12:05:03.738Z,23.94
2016-05-13T12:06:03.740Z,23.9
2016-05-13T12:07:03.728Z,23.92
2016-05-13T12:08:03.528Z,23.9
2016-05-13T12:09:03.733Z,23.9
2016-05-13T12:10:03.533Z,23.84
2016-05-13T12:11:03.942Z,23.89
2016-05-13T12:12:03.928Z,23.84
2016-05-13T12:13:03.728Z,23.89
2016-05-13T12:14:03.715Z,23.97
2016-05-13T12:15:05.296Z,23.93
2016-05-13T12:16:03.721Z,23.96
2016-05-13T12:17:03.520Z,24
2016-05-13T12:18:03.679Z,24
2016-05-13T12:19:03.572Z,23.94
2016-05-13T12:20:03.919Z,23.99
2016-05-13T12:21:03.922Z,24.04
2016-05-13T12:22:03.565Z,24.02
2016-05-13T12:23:03.740Z,24.08
2016-05-13T12:24:03.507Z,24.04
2016-05-13T12:25:03.714Z,24.07
2016-05-13T12:26:03.529Z,23.99
2016-05-13T12:27:03.922Z,24.07
2016-05-13T12:28:03.769Z,24
2016-05-13T12:29:03.709Z,24.07
2016-05-13T12:30:03.337Z,24.07
2016-05-13T12:31:03.730Z,24.08
2016-05-13T12:32:03.701Z,24.07
2016-05-13T12:33:03.626Z,24.08
2016-05-13T12:34:03.520Z,24.09
2016-05-13T12:35:03.709Z,24.11
2016-05-13T12:36:03.509Z,24.11
2016-05-13T12:37:03.371Z,24.15
2016-05-13T12:38:03.311Z,24.17
2016-05-13T12:39:03.627Z,24.09
2016-05-13T12:40:03.707Z,24.11
2016-05-13T12:41:03.553Z,24.09
2016-05-13T12:42:03.713Z,24.17
2016-05-13T12:43:03.731Z,24.15
2016-05-13T12:44:03.922Z,24.19
2016-05-13T12:45:03.706Z,24.22
2016-05-13T12:46:03.708Z,24.21
2016-05-13T12:47:03.508Z,24.18
2016-05-13T12:48:03.338Z,24.18
2016-05-13T12:49:03.560Z,24.21
2016-05-13T12:50:03.719Z,24.21
2016-05-13T12:51:03.705Z,24.17
2016-05-13T12:52:03.755Z,24.18
2016-05-13T12:53:03.711Z,24.19
2016-05-13T12:54:03.307Z,24.26
2016-05-13T12:55:03.763Z,24.33